KCAE

Columbia Metropolitan Airport

Columbia, South Carolina, USA
KCAE 162336Z 1700/1724 18004KT P6SM VCSH BKN120 FM171500 24008KT P6SM BKN035 FM171900 24010KT P6SM VCTS SCT050CB
Issued Valid From Valid To
Jul-16 @ 23:36 UTC
(51 minutes ago)
Jul-17 @ 00:00 UTC
(27 minutes ago)
Jul-18 @ 00:00 UTC
(in 24 hours)
Jul-17 @ 00:00 to Jul-17 @ 15:00
KCAE 162336Z 1700/1724 18004KT P6SM VCSH BKN120
Wind Visibility Clouds
180° at 4 knots Greater than 6 miles
  • Broken at 12,000' AGL
From Jul-17 @ 15:00 to Jul-17 @ 19:00
FM171500 24008KT P6SM BKN035
Wind Visibility Clouds
240° at 8 knots Greater than 6 miles
  • Broken at 3,500' AGL
From Jul-17 @ 19:00 to Jul-18 @ 00:00
FM171900 24010KT P6SM VCTS SCT050CB
Wind Visibility Clouds Conditions
240° at 10 knots Greater than 6 miles
  • Scattered at 5,000' AGL
  • Area Thunderstorm
KCAE 162336Z 1700/1724 18004KT P6SM VCSH BKN120 FM171500 24008KT P6SM BKN035 FM171900 24010KT P6SM VCTS SCT050CB
Issued Jul-16 @ 23:36 UTC
(51 minutes ago)
Valid From Jul-17 @ 00:00 UTC
(27 minutes ago)
Valid To Jul-18 @ 00:00 UTC
(in 24 hours)
Jul-17 @ 00:00 - Jul-17 @ 15:00
Wind Visibility
180° at 4 knots Greater than 6 miles
Clouds
  • Broken at 12,000' AGL
From Jul-17 @ 15:00 - Jul-17 @ 19:00
Wind Visibility
240° at 8 knots Greater than 6 miles
Clouds
  • Broken at 3,500' AGL
From Jul-17 @ 19:00 - Jul-18 @ 00:00
Wind Visibility
240° at 10 knots Greater than 6 miles
Clouds
  • Scattered at 5,000' AGL
Conditions
  • Area Thunderstorm